createdAt,value
2018-09-03T04:42:08.398Z,18.50
2018-09-03T04:44:39.339Z,18.50
2018-09-03T04:47:10.123Z,18.50
2018-09-03T04:49:41.049Z,18.60
2018-09-03T04:52:11.788Z,18.60
2018-09-03T04:54:42.859Z,18.60
2018-09-03T04:57:13.667Z,18.60
2018-09-03T07:35:35.177Z,18.60
2018-09-03T07:38:06.887Z,26.70
2018-09-03T07:40:37.768Z,26.50
2018-09-03T14:28:44.807Z,28.00
2018-09-03T14:31:15.752Z,27.80
2018-09-03T14:33:46.912Z,27.60
2018-09-03T14:36:19.462Z,27.50
2018-09-03T14:38:50.458Z,27.50
2018-09-03T14:41:21.525Z,27.10
2018-09-03T14:43:53.283Z,26.60
2018-09-03T14:46:24.800Z,26.50
2018-09-03T14:48:55.614Z,26.50
2018-09-03T14:51:27.933Z,26.20
2018-09-03T14:53:59.660Z,26.20
2018-09-03T14:56:31.417Z,26.00
2018-09-03T14:59:03.136Z,25.70
2018-09-03T15:01:35.856Z,25.30
2018-09-03T15:04:06.955Z,25.20
2018-09-03T15:06:37.958Z,25.30
2018-09-03T15:09:11.523Z,25.20
2018-09-03T15:11:44.850Z,25.10
2018-09-03T15:14:15.748Z,25.10
2018-09-03T15:16:48.146Z,25.20
2018-09-03T15:19:18.856Z,25.20
2018-09-03T15:21:49.799Z,25.20
2018-09-03T15:24:20.524Z,24.90
2018-09-03T15:26:51.316Z,24.80
2018-09-03T15:29:22.646Z,24.70
2018-09-03T15:31:53.465Z,24.60
2018-09-03T15:34:25.003Z,24.70
2018-09-03T15:36:56.441Z,24.70
2018-09-03T15:39:27.354Z,24.80
2018-09-03T15:41:58.965Z,24.60
2018-09-03T15:44:29.709Z,24.50
2018-09-03T15:47:01.026Z,24.50
2018-09-03T15:49:33.892Z,24.40
2018-09-03T15:52:05.291Z,24.20
2018-09-03T15:54:36.357Z,24.00
2018-09-03T15:57:09.569Z,23.90
2018-09-03T15:59:40.719Z,23.80
2018-09-03T16:02:12.578Z,23.70
2018-09-03T16:04:44.153Z,23.70
2018-09-03T16:07:16.148Z,23.80
2018-09-03T16:09:48.156Z,23.70
2018-09-03T16:12:22.874Z,23.80
2018-09-03T16:14:54.242Z,23.80
2018-09-03T16:17:25.430Z,23.70
2018-09-03T16:19:56.290Z,23.70
2018-09-03T16:22:27.112Z,23.70
2018-09-03T16:24:58.384Z,23.70
2018-09-03T16:27:29.614Z,23.60
2018-09-03T16:30:01.251Z,23.30
2018-09-03T16:32:32.998Z,23.20
2018-09-03T16:35:06.891Z,23.10
2018-09-03T16:37:43.054Z,22.90
2018-09-03T16:40:14.034Z,22.80
2018-09-03T16:42:45.046Z,22.70
2018-09-03T16:45:16.045Z,22.60
2018-09-03T16:47:47.155Z,22.40
2018-09-03T16:50:18.198Z,22.10
2018-09-03T16:52:51.025Z,22.00
2018-09-03T16:55:25.509Z,22.00
2018-09-03T16:57:56.558Z,22.00
2018-09-03T17:00:28.300Z,21.90
2018-09-03T17:03:00.023Z,21.90
2018-09-03T17:05:30.880Z,21.80
2018-09-03T17:08:01.858Z,21.70
2018-09-03T17:10:32.705Z,21.70
2018-09-03T17:13:04.672Z,21.70
2018-09-03T17:15:35.522Z,21.70
2018-09-03T17:18:06.587Z,21.70
2018-09-03T17:20:37.537Z,21.80
2018-09-03T17:23:08.498Z,21.70
2018-09-03T17:25:41.391Z,21.60
2018-09-03T17:28:12.249Z,21.60
2018-09-03T17:30:44.708Z,21.60
2018-09-03T17:33:15.482Z,21.70
2018-09-03T17:35:46.355Z,21.60
2018-09-03T17:38:18.134Z,21.60
2018-09-03T17:40:49.008Z,21.60
2018-09-03T17:43:20.496Z,21.60
2018-09-03T17:45:52.012Z,21.50
2018-09-03T17:48:22.967Z,21.40
2018-09-03T17:50:53.887Z,21.20
2018-09-03T17:53:25.454Z,20.90
2018-09-03T17:55:56.926Z,20.80
2018-09-03T17:58:28.016Z,20.70
2018-09-03T18:01:00.073Z,20.70
2018-09-03T18:03:34.411Z,20.60
2018-09-03T18:06:05.324Z,20.60
2018-09-03T18:08:37.415Z,20.60
2018-09-03T18:11:08.509Z,20.60
2018-09-03T18:13:40.843Z,20.70
2018-09-03T18:16:12.532Z,20.70
2018-09-03T18:18:44.214Z,20.70
2018-09-03T18:21:15.876Z,20.70
2018-09-03T18:23:47.628Z,20.70
2018-09-03T18:26:18.424Z,20.70
2018-09-03T18:28:49.273Z,20.70
2018-09-03T18:31:20.488Z,20.60
2018-09-03T18:33:52.283Z,20.60
2018-09-03T18:36:26.003Z,20.60
2018-09-03T18:38:57.110Z,20.60
2018-09-03T18:41:28.244Z,20.50
2018-09-03T18:43:59.934Z,20.60
2018-09-03T18:46:31.301Z,20.60
2018-09-03T18:49:02.509Z,20.50
2018-09-03T18:51:33.318Z,20.50
2018-09-03T18:54:04.193Z,20.60
2018-09-03T18:56:35.183Z,20.60
2018-09-03T18:59:08.052Z,20.60
2018-09-03T19:01:39.690Z,20.60
2018-09-03T19:04:12.171Z,20.60
2018-09-03T19:06:44.787Z,20.60
2018-09-03T19:09:16.985Z,20.60
2018-09-03T19:11:48.692Z,20.50
2018-09-03T19:14:19.559Z,20.60
2018-09-03T19:16:53.599Z,20.50
2018-09-03T19:19:24.503Z,20.60
2018-09-03T19:21:55.621Z,20.70
2018-09-03T19:24:27.668Z,20.70
2018-09-03T19:26:58.425Z,20.80
2018-09-03T19:29:29.438Z,20.90
2018-09-03T19:32:00.822Z,20.90
2018-09-03T19:34:32.227Z,20.80
2018-09-03T19:53:28.590Z,20.60
2018-09-03T19:55:59.980Z,20.50
2018-09-03T19:58:32.312Z,20.10
2018-09-03T20:01:07.007Z,20.10
2018-09-03T20:03:40.187Z,20.10
2018-09-03T20:06:12.523Z,20.10
2018-09-03T20:08:46.979Z,20.10
2018-09-03T20:11:18.083Z,20.10
2018-09-03T20:13:53.705Z,20.10
2018-09-03T20:16:25.821Z,20.00
2018-09-03T20:18:56.831Z,20.00
2018-09-03T20:21:28.044Z,19.90
2018-09-03T20:23:59.629Z,19.90
2018-09-03T20:26:30.981Z,19.90
2018-09-03T20:29:06.804Z,19.90
2018-09-03T20:31:37.885Z,19.90
2018-09-03T20:34:09.124Z,19.90
2018-09-03T20:36:42.675Z,19.90
2018-09-03T20:39:14.807Z,19.80
2018-09-03T20:41:46.748Z,19.80
2018-09-03T20:44:18.125Z,19.80
2018-09-03T20:46:51.266Z,19.80
2018-09-03T20:49:23.535Z,19.80
2018-09-03T20:51:55.125Z,19.80
2018-09-03T20:54:28.135Z,19.80
2018-09-03T20:57:02.093Z,19.80
2018-09-03T20:59:33.587Z,19.80
2018-09-03T21:02:06.052Z,19.70
2018-09-03T21:04:38.329Z,19.70
2018-09-03T21:07:09.440Z,19.80
2018-09-03T21:09:46.124Z,19.70
2018-09-03T21:12:20.303Z,19.70
2018-09-03T21:14:51.475Z,19.70
2018-09-03T21:17:22.841Z,19.70
2018-09-03T21:19:54.491Z,19.70
2018-09-03T21:22:31.159Z,19.60
2018-09-03T21:25:03.715Z,19.60
2018-09-03T21:27:35.507Z,19.60
2018-09-03T21:30:07.741Z,19.60
2018-09-03T21:32:39.380Z,19.60
2018-09-03T21:35:10.667Z,19.60
2018-09-03T21:37:41.992Z,19.60
2018-09-03T21:40:14.027Z,19.60
2018-09-03T21:42:45.604Z,19.50
2018-09-03T21:45:21.416Z,19.50
2018-09-03T21:47:52.518Z,19.40
2018-09-03T21:50:24.184Z,19.40
2018-09-03T21:52:55.312Z,19.50
2018-09-03T21:55:30.154Z,19.30
2018-09-03T21:58:01.193Z,19.30
2018-09-03T22:00:33.031Z,19.30
2018-09-03T22:03:04.721Z,19.30
2018-09-03T22:05:36.948Z,19.30
2018-09-03T22:08:08.973Z,19.30
2018-09-03T22:10:40.055Z,19.20
2018-09-03T22:13:11.374Z,19.30
2018-09-03T22:15:43.284Z,19.30
2018-09-03T22:18:14.438Z,19.30
2018-09-03T22:20:45.711Z,19.20
2018-09-03T22:23:17.652Z,19.20
2018-09-03T22:25:50.008Z,19.20
2018-09-03T22:28:23.222Z,19.10
2018-09-03T22:30:55.173Z,19.10
2018-09-03T22:33:26.400Z,19.10
2018-09-03T22:35:57.795Z,19.20
2018-09-03T22:38:28.868Z,19.10
2018-09-03T22:41:00.883Z,19.10
2018-09-03T22:43:32.324Z,19.10
2018-09-03T22:46:03.263Z,19.10
2018-09-03T22:48:34.334Z,19.10
2018-09-03T22:51:07.162Z,19.10
2018-09-03T22:53:38.341Z,19.30
2018-09-03T22:56:10.404Z,19.10
2018-09-03T22:58:41.348Z,19.10
2018-09-03T23:01:12.460Z,19.00
2018-09-03T23:03:47.739Z,19.10
2018-09-03T23:06:20.759Z,19.10
2018-09-03T23:08:51.685Z,19.10
2018-09-03T23:11:22.862Z,19.10
2018-09-03T23:13:54.027Z,19.10
2018-09-03T23:16:25.045Z,19.10
2018-09-03T23:18:56.168Z,19.10
2018-09-03T23:21:27.310Z,19.10
2018-09-03T23:23:58.311Z,19.00
2018-09-03T23:26:29.321Z,18.90
2018-09-03T23:29:00.544Z,19.00
2018-09-03T23:31:31.605Z,19.00
2018-09-03T23:34:02.770Z,19.00
2018-09-03T23:36:34.269Z,19.00
2018-09-03T23:39:06.801Z,18.90
2018-09-03T23:41:37.970Z,18.80
2018-09-03T23:44:09.079Z,18.80
2018-09-03T23:46:41.215Z,18.70
2018-09-03T23:49:12.508Z,18.70
2018-09-03T23:51:43.414Z,18.70
2018-09-03T23:54:14.603Z,18.70
2018-09-03T23:56:45.801Z,18.70
2018-09-03T23:59:18.107Z,18.70
